Wayne P. Lagrange — WDC6522 — position and weather

sailwx.info

Track history (hours):
 
Tides and Currents Weather Stations Pressure Air Temp Water Temp Dewpoint Dewpoint Depression Visibility Wind Speed Wind Dir Waves Ship Positions

Wayne P. Lagrange

Owner: American Commercial Lines LLC, Jeffersonville, IN. More information available from US FCC via Universal Licensing System and Coast Guard Vessel Documentation Center.

Last reported at 2018-Apr-21 10:40 UTC. Time now 2018-Jun-19 16:18 UTC.
Position N 32°46' W 091°09'.
Warning: this ship's position is 59 days out of date.

Length 41 m; draft 2.4 m.

Type: Towing. MMSI: 367057450.

Date/timePositionNaut miles runAvg speedWind from/ knotsBaromVisibWave heightAir tempDewpointWater temp
2018-Apr-21 10:40N 32°46' W 091°09'6 3.2
2018-Apr-21 08:53N 32°43' W 091°04'8 3.9
2018-Apr-21 06:55N 32°37' W 091°09'2 4.1
2018-Apr-21 06:30N 32°35' W 091°07'2 3.4
2018-Apr-21 06:01N 32°34' W 091°06'2 4.4
2018-Apr-21 05:29N 32°31' W 091°06'2 4.4
2018-Apr-21 05:01N 32°29' W 091°07'2 3.0
2018-Apr-21 04:31N 32°28' W 091°06'2 4.0
2018-Apr-21 04:01N 32°27' W 091°04'2 3.7
2018-Apr-21 03:31N 32°26' W 091°02'2 3.3
2018-Apr-21 03:01N 32°25' W 091°00'2 3.4
2018-Apr-21 02:30N 32°24' W 090°60'2 4.2
2018-Apr-21 02:01N 32°22' W 091°00'2 3.1
2018-Apr-21 01:31N 32°21' W 090°59'3 5.0
2018-Apr-21 01:01N 32°21' W 090°56'0 0.2
2018-Apr-21 00:31N 32°21' W 090°56'0 0.0
2018-Apr-21 00:01N 32°21' W 090°56'0 0.0
2018-Apr-20 23:31N 32°21' W 090°56'1 1.9
2018-Apr-20 23:01N 32°20' W 090°55'2 3.4
2018-Apr-20 22:31N 32°19' W 090°55'1 1.5
2018-Apr-20 22:01N 32°18' W 090°55'0 0.0
2018-Apr-20 21:31N 32°18' W 090°55'0 0.1
2018-Apr-20 21:00N 32°18' W 090°55'0 0.7
2018-Apr-20 20:30N 32°18' W 090°56'0 0.3
2018-Apr-20 20:01N 32°18' W 090°56'0 0.0
2018-Apr-20 19:31N 32°18' W 090°56'0 0.0
2018-Apr-20 19:01N 32°18' W 090°56'0 0.0
2018-Apr-20 18:31N 32°18' W 090°56'0 0.0
2018-Apr-20 18:01N 32°18' W 090°56'0 0.0
2018-Apr-20 17:31N 32°18' W 090°56'1 2.1
2018-Apr-20 17:01N 32°17' W 090°56'2 3.3
2018-Apr-20 16:31N 32°16' W 090°58'2 4.3
2018-Apr-20 16:00N 32°14' W 090°59'2 4.7
2018-Apr-20 15:30N 32°12' W 090°59'2 3.7
2018-Apr-20 15:01N 32°10' W 090°60'2 3.9
2018-Apr-20 14:31N 32°08' W 091°00'2 3.6
2018-Apr-20 13:59N 32°07' W 091°02'2 3.9
2018-Apr-20 13:27N 32°08' W 091°05'2 3.5
2018-Apr-20 12:58N 32°07' W 091°06'5 4.6
2018-Apr-20 11:52N 32°02' W 091°04'  
2018-Apr-16 02:49N 31°57' W 091°11'6 8.5
2018-Apr-16 02:09N 31°60' W 091°05'2 9.9
2018-Apr-16 01:57N 32°02' W 091°04'4 7.8
2018-Apr-16 01:27N 32°05' W 091°05'3 5.5
2018-Apr-16 00:59N 32°08' W 091°05'4 7.9
2018-Apr-16 00:30N 32°09' W 091°00'5 9.8
2018-Apr-16 00:00N 32°13' W 090°59'4 8.6
2018-Apr-15 23:30N 32°17' W 090°56'1 2.7
2018-Apr-15 23:00N 32°18' W 090°55'0 0.1
2018-Apr-15 22:30N 32°18' W 090°55'0 0.0
2018-Apr-15 22:00N 32°18' W 090°55'0 0.0
2018-Apr-15 21:30N 32°18' W 090°55'0 0.0
2018-Apr-15 21:00N 32°18' W 090°55'0 0.0
2018-Apr-15 20:30N 32°18' W 090°55'0 0.0
2018-Apr-15 20:00N 32°18' W 090°55'0 0.0
2018-Apr-15 19:30N 32°18' W 090°55'0 0.0
2018-Apr-15 19:00N 32°18' W 090°55'0 0.0
2018-Apr-15 18:29N 32°18' W 090°55'0 0.0
2018-Apr-15 18:00N 32°18' W 090°55'0 0.0
2018-Apr-15 17:30N 32°18' W 090°55'0 0.1
2018-Apr-15 16:59N 32°18' W 090°55'1 2.7
2018-Apr-15 16:30N 32°19' W 090°54'3 6.8
2018-Apr-15 16:00N 32°21' W 090°58'3 6.1
2018-Apr-15 15:30N 32°23' W 090°60'3 6.0
2018-Apr-15 15:00N 32°26' W 091°02'2 3.4
2018-Apr-15 14:30N 32°26' W 091°04'2 4.1
2018-Apr-15 14:00N 32°27' W 091°06'0 0.1
2018-Apr-15 13:30N 32°27' W 091°06'0 0.2
2018-Apr-15 13:00N 32°27' W 091°06'0 0.0
2018-Apr-15 12:30N 32°27' W 091°06'0 0.0
2018-Apr-15 12:00N 32°27' W 091°06'0 0.0
2018-Apr-15 11:30N 32°27' W 091°06'0 0.0
2018-Apr-15 11:00N 32°27' W 091°06'0 0.1
2018-Apr-15 10:30N 32°27' W 091°06'4 7.5
2018-Apr-15 10:00N 32°31' W 091°06'4 8.6
2018-Apr-15 09:30N 32°35' W 091°08'  
Track history (hours):
 
Tides and Currents Weather Stations Pressure Air Temp Water Temp Dewpoint Dewpoint Depression Visibility Wind Speed Wind Dir Waves Ship Positions

Wayne P. Lagrange

Owner: American Commercial Lines LLC, Jeffersonville, IN. More information available from US FCC via Universal Licensing System and Coast Guard Vessel Documentation Center.

Last reported at 2018-Apr-21 10:40 UTC. Time now 2018-Jun-19 16:18 UTC.
Position N 32°46' W 091°09'.
Warning: this ship's position is 59 days out of date.

Length 41 m; draft 2.4 m.

Type: Towing. MMSI: 367057450.

Date/timePositionNaut miles runAvg speedWind from/ knotsBaromVisibWave heightAir tempDewpointWater temp
2018-Apr-21 10:40N 32°46' W 091°09'6 3.2
2018-Apr-21 08:53N 32°43' W 091°04'8 3.9
2018-Apr-21 06:55N 32°37' W 091°09'2 4.1
2018-Apr-21 06:30N 32°35' W 091°07'2 3.4
2018-Apr-21 06:01N 32°34' W 091°06'2 4.4
2018-Apr-21 05:29N 32°31' W 091°06'2 4.4
2018-Apr-21 05:01N 32°29' W 091°07'2 3.0
2018-Apr-21 04:31N 32°28' W 091°06'2 4.0
2018-Apr-21 04:01N 32°27' W 091°04'2 3.7
2018-Apr-21 03:31N 32°26' W 091°02'2 3.3
2018-Apr-21 03:01N 32°25' W 091°00'2 3.4
2018-Apr-21 02:30N 32°24' W 090°60'2 4.2
2018-Apr-21 02:01N 32°22' W 091°00'2 3.1
2018-Apr-21 01:31N 32°21' W 090°59'3 5.0
2018-Apr-21 01:01N 32°21' W 090°56'0 0.2
2018-Apr-21 00:31N 32°21' W 090°56'0 0.0
2018-Apr-21 00:01N 32°21' W 090°56'0 0.0
2018-Apr-20 23:31N 32°21' W 090°56'1 1.9
2018-Apr-20 23:01N 32°20' W 090°55'2 3.4
2018-Apr-20 22:31N 32°19' W 090°55'1 1.5
2018-Apr-20 22:01N 32°18' W 090°55'0 0.0
2018-Apr-20 21:31N 32°18' W 090°55'0 0.1
2018-Apr-20 21:00N 32°18' W 090°55'0 0.7
2018-Apr-20 20:30N 32°18' W 090°56'0 0.3
2018-Apr-20 20:01N 32°18' W 090°56'0 0.0
2018-Apr-20 19:31N 32°18' W 090°56'0 0.0
2018-Apr-20 19:01N 32°18' W 090°56'0 0.0
2018-Apr-20 18:31N 32°18' W 090°56'0 0.0
2018-Apr-20 18:01N 32°18' W 090°56'0 0.0
2018-Apr-20 17:31N 32°18' W 090°56'1 2.1
2018-Apr-20 17:01N 32°17' W 090°56'2 3.3
2018-Apr-20 16:31N 32°16' W 090°58'2 4.3
2018-Apr-20 16:00N 32°14' W 090°59'2 4.7
2018-Apr-20 15:30N 32°12' W 090°59'2 3.7
2018-Apr-20 15:01N 32°10' W 090°60'2 3.9
2018-Apr-20 14:31N 32°08' W 091°00'2 3.6
2018-Apr-20 13:59N 32°07' W 091°02'2 3.9
2018-Apr-20 13:27N 32°08' W 091°05'2 3.5
2018-Apr-20 12:58N 32°07' W 091°06'5 4.6
2018-Apr-20 11:52N 32°02' W 091°04'  
2018-Apr-16 02:49N 31°57' W 091°11'6 8.5
2018-Apr-16 02:09N 31°60' W 091°05'2 9.9
2018-Apr-16 01:57N 32°02' W 091°04'4 7.8
2018-Apr-16 01:27N 32°05' W 091°05'3 5.5
2018-Apr-16 00:59N 32°08' W 091°05'4 7.9
2018-Apr-16 00:30N 32°09' W 091°00'5 9.8
2018-Apr-16 00:00N 32°13' W 090°59'4 8.6
2018-Apr-15 23:30N 32°17' W 090°56'1 2.7
2018-Apr-15 23:00N 32°18' W 090°55'0 0.1
2018-Apr-15 22:30N 32°18' W 090°55'0 0.0
2018-Apr-15 22:00N 32°18' W 090°55'0 0.0
2018-Apr-15 21:30N 32°18' W 090°55'0 0.0
2018-Apr-15 21:00N 32°18' W 090°55'0 0.0
2018-Apr-15 20:30N 32°18' W 090°55'0 0.0
2018-Apr-15 20:00N 32°18' W 090°55'0 0.0
2018-Apr-15 19:30N 32°18' W 090°55'0 0.0
2018-Apr-15 19:00N 32°18' W 090°55'0 0.0
2018-Apr-15 18:29N 32°18' W 090°55'0 0.0
2018-Apr-15 18:00N 32°18' W 090°55'0 0.0
2018-Apr-15 17:30N 32°18' W 090°55'0 0.1
2018-Apr-15 16:59N 32°18' W 090°55'1 2.7
2018-Apr-15 16:30N 32°19' W 090°54'3 6.8
2018-Apr-15 16:00N 32°21' W 090°58'3 6.1
2018-Apr-15 15:30N 32°23' W 090°60'3 6.0
2018-Apr-15 15:00N 32°26' W 091°02'2 3.4
2018-Apr-15 14:30N 32°26' W 091°04'2 4.1
2018-Apr-15 14:00N 32°27' W 091°06'0 0.1
2018-Apr-15 13:30N 32°27' W 091°06'0 0.2
2018-Apr-15 13:00N 32°27' W 091°06'0 0.0
2018-Apr-15 12:30N 32°27' W 091°06'0 0.0
2018-Apr-15 12:00N 32°27' W 091°06'0 0.0
2018-Apr-15 11:30N 32°27' W 091°06'0 0.0
2018-Apr-15 11:00N 32°27' W 091°06'0 0.1
2018-Apr-15 10:30N 32°27' W 091°06'4 7.5
2018-Apr-15 10:00N 32°31' W 091°06'4 8.6
2018-Apr-15 09:30N 32°35' W 091°08'  

Dump ship's entire track history